Terminal Aerodrome Forecast
Issued by NWS

Home | Current Version | Previous Version | Text Only | Print | Product List | Glossary On
Versions: 1 2 3 4 5 6 7 8 9 10 11 12 13 14 15 16 17 18 19 20 21 22
087
FTUS43 KIND 190422 AAB
TAFLAF
TAF AMD
KLAF 190422Z 1904/1924 21004KT P6SM BKN008
     FM190800 VRB03KT 1/2SM FG BKN008
     FM191200 00000KT 1/4SM FG BKN008
     FM191500 13005KT P6SM BKN035
     FM192100 10005KT 5SM -RA OVC035
      AMD LTD TO CLD VIS AND WIND TIL 191400=

USA.gov is the U.S. government's official web portal to all federal, state and local government web resources and services.